createdAt,value
2018-09-08T00:00:08.860Z,12.874752
2018-09-08T00:00:21.263Z,6.437376
2018-09-08T00:00:33.677Z,6.437376
2018-09-08T00:00:46.085Z,12.874752
2018-09-08T00:00:58.499Z,9.656064
2018-09-08T00:01:10.915Z,17.702784
2018-09-08T00:01:23.300Z,11.265408
2018-09-08T00:01:35.701Z,11.265408
2018-09-08T00:01:48.127Z,8.04672
2018-09-08T00:02:00.680Z,9.656064
2018-09-08T00:02:13.077Z,9.656064
2018-09-08T00:02:25.476Z,6.437376
2018-09-08T00:02:37.850Z,6.437376
2018-09-08T00:02:50.236Z,8.04672
2018-09-08T00:03:02.682Z,6.437376
2018-09-08T00:03:15.252Z,9.656064
2018-09-08T00:03:27.644Z,8.04672
2018-09-08T00:03:40.038Z,6.437376
2018-09-08T00:03:52.442Z,3.218688
2018-09-08T00:04:04.857Z,8.04672
2018-09-08T00:04:17.262Z,6.437376
2018-09-08T00:04:29.673Z,9.656064
2018-09-08T00:04:42.059Z,9.656064
2018-09-08T00:04:54.438Z,11.265408
2018-09-08T00:05:06.823Z,8.04672
2018-09-08T00:05:19.204Z,8.04672
2018-09-08T00:05:31.605Z,4.828032
2018-09-08T00:05:43.990Z,6.437376
2018-09-08T00:05:56.370Z,8.04672
2018-09-08T00:06:08.739Z,9.656064
2018-09-08T00:06:21.113Z,8.04672
2018-09-08T00:06:33.755Z,8.04672
2018-09-08T00:06:46.217Z,8.04672
2018-09-08T00:06:58.606Z,9.656064
2018-09-08T00:07:10.977Z,8.04672
2018-09-08T00:07:23.648Z,8.04672
2018-09-08T00:07:36.115Z,3.218688
2018-09-08T00:07:48.491Z,3.218688
2018-09-08T00:08:00.880Z,6.437376
2018-09-08T00:08:13.450Z,6.437376
2018-09-08T00:08:25.829Z,1.609344
2018-09-08T00:08:38.225Z,1.609344
2018-09-08T00:08:50.644Z,1.609344
2018-09-08T00:09:03.034Z,1.609344
2018-09-08T00:09:15.438Z,6.437376
2018-09-08T00:09:27.828Z,3.218688
2018-09-08T00:09:40.194Z,8.04672
2018-09-08T00:09:52.575Z,11.265408
2018-09-08T00:10:04.944Z,9.656064
2018-09-08T00:10:17.335Z,8.04672
2018-09-08T00:10:29.720Z,11.265408
2018-09-08T00:10:42.143Z,8.04672
2018-09-08T00:10:54.561Z,8.04672
2018-09-08T00:11:06.958Z,8.04672
2018-09-08T00:11:19.393Z,8.04672
2018-09-08T00:11:31.770Z,6.437376
2018-09-08T00:11:44.355Z,6.437376
2018-09-08T00:11:56.730Z,8.04672
2018-09-08T00:12:09.139Z,8.04672
2018-09-08T00:12:21.515Z,6.437376
2018-09-08T00:12:33.898Z,4.828032
2018-09-08T00:12:46.361Z,6.437376
2018-09-08T00:12:58.744Z,6.437376
2018-09-08T00:13:11.164Z,6.437376
2018-09-08T00:13:23.559Z,4.828032
2018-09-08T00:13:35.956Z,4.828032
2018-09-08T00:13:48.329Z,1.609344
2018-09-08T00:14:00.698Z,4.828032
2018-09-08T00:14:13.083Z,8.04672
2018-09-08T00:14:25.472Z,9.656064
2018-09-08T00:14:37.858Z,8.04672
2018-09-08T00:14:50.233Z,6.437376
2018-09-08T00:15:02.626Z,8.04672
2018-09-08T00:15:15.033Z,6.437376
2018-09-08T00:15:27.472Z,6.437376
2018-09-08T00:15:39.872Z,4.828032
2018-09-08T00:15:52.255Z,3.218688
2018-09-08T00:16:04.883Z,3.218688
2018-09-08T00:16:17.250Z,4.828032
2018-09-08T00:16:29.642Z,8.04672
2018-09-08T00:16:42.025Z,4.828032
2018-09-08T00:16:54.408Z,6.437376
2018-09-08T00:17:06.842Z,8.04672
2018-09-08T00:17:19.230Z,6.437376
2018-09-08T00:17:31.616Z,9.656064
2018-09-08T00:17:44.168Z,11.265408
2018-09-08T00:17:56.572Z,11.265408
2018-09-08T00:18:08.950Z,6.437376
2018-09-08T00:18:21.364Z,8.04672
2018-09-08T00:18:33.757Z,3.218688
2018-09-08T00:18:46.181Z,8.04672
2018-09-08T00:18:58.579Z,4.828032
2018-09-08T00:19:10.975Z,9.656064
2018-09-08T00:19:23.385Z,8.04672
2018-09-08T00:19:35.951Z,9.656064
2018-09-08T00:19:48.351Z,8.04672
2018-09-08T00:20:00.739Z,8.04672
2018-09-08T00:20:13.182Z,8.04672
2018-09-08T00:20:25.567Z,8.04672
2018-09-08T00:20:38.569Z,14.484096
2018-09-08T00:20:50.966Z,11.265408
2018-09-08T00:21:03.397Z,9.656064
2018-09-08T00:21:15.830Z,9.656064
2018-09-08T00:21:28.314Z,8.04672
2018-09-08T00:21:40.723Z,9.656064
2018-09-08T00:21:53.142Z,12.874752
2018-09-08T00:22:05.691Z,9.656064
2018-09-08T00:22:18.131Z,9.656064
2018-09-08T00:22:30.534Z,9.656064
2018-09-08T00:22:42.933Z,8.04672
2018-09-08T00:22:55.367Z,6.437376
2018-09-08T00:23:07.988Z,6.437376
2018-09-08T00:23:20.381Z,8.04672
2018-09-08T00:23:32.764Z,11.265408
2018-09-08T00:23:45.236Z,8.04672
2018-09-08T00:23:57.725Z,6.437376
2018-09-08T00:24:10.124Z,6.437376
2018-09-08T00:24:22.509Z,9.656064
2018-09-08T00:24:34.909Z,8.04672
2018-09-08T00:24:47.456Z,9.656064
2018-09-08T00:24:59.893Z,11.265408
2018-09-08T00:25:12.382Z,4.828032
2018-09-08T00:25:24.771Z,8.04672
2018-09-08T00:25:37.159Z,6.437376
2018-09-08T00:25:49.552Z,3.218688
2018-09-08T00:26:02.378Z,3.218688
2018-09-08T00:26:14.760Z,1.609344
2018-09-08T00:26:27.138Z,1.609344
2018-09-08T00:26:39.522Z,6.437376
2018-09-08T00:26:52.068Z,3.218688
2018-09-08T00:27:04.451Z,1.609344
2018-09-08T00:27:16.842Z,8.04672
2018-09-08T00:27:29.236Z,6.437376
2018-09-08T00:27:41.614Z,6.437376
2018-09-08T00:27:53.990Z,6.437376
2018-09-08T00:28:06.363Z,9.656064
2018-09-08T00:28:18.737Z,9.656064
2018-09-08T00:28:31.107Z,6.437376
2018-09-08T00:28:43.489Z,4.828032
2018-09-08T00:28:55.887Z,3.218688
2018-09-08T00:29:08.275Z,3.218688
2018-09-08T00:29:20.710Z,1.609344
2018-09-08T00:29:33.143Z,4.828032
2018-09-08T00:29:45.524Z,9.656064
2018-09-08T00:29:57.910Z,8.04672
2018-09-08T00:30:10.289Z,6.437376
2018-09-08T00:30:22.688Z,6.437376
2018-09-08T00:30:35.118Z,8.04672
2018-09-08T00:30:47.491Z,11.265408
2018-09-08T00:30:59.882Z,6.437376
2018-09-08T00:31:12.262Z,4.828032
2018-09-08T00:31:24.646Z,3.218688
2018-09-08T00:31:37.031Z,3.218688
2018-09-08T00:31:49.444Z,3.218688
2018-09-08T00:32:01.825Z,9.656064
2018-09-08T00:32:14.207Z,8.04672
2018-09-08T00:32:26.587Z,11.265408
2018-09-08T00:32:38.968Z,11.265408
2018-09-08T00:32:51.362Z,8.04672
2018-09-08T00:33:03.758Z,6.437376
2018-09-08T00:33:16.300Z,4.828032
2018-09-08T00:33:28.713Z,8.04672
2018-09-08T00:33:41.109Z,9.656064
2018-09-08T00:33:53.479Z,6.437376
2018-09-08T00:34:05.851Z,6.437376
2018-09-08T00:34:18.230Z,8.04672
2018-09-08T00:34:30.689Z,6.437376
2018-09-08T00:34:43.081Z,3.218688
2018-09-08T00:34:55.539Z,3.218688
2018-09-08T00:35:07.925Z,9.656064
2018-09-08T00:35:20.309Z,8.04672
2018-09-08T00:35:32.699Z,6.437376
2018-09-08T00:35:45.104Z,8.04672
2018-09-08T00:35:57.476Z,6.437376
2018-09-08T00:36:09.887Z,8.04672
2018-09-08T00:36:22.289Z,9.656064
2018-09-08T00:36:34.671Z,11.265408
2018-09-08T00:36:47.058Z,8.04672
2018-09-08T00:36:59.450Z,6.437376
2018-09-08T00:37:11.874Z,6.437376
2018-09-08T00:37:24.255Z,6.437376
2018-09-08T00:37:36.617Z,4.828032
2018-09-08T00:37:49.001Z,3.218688
2018-09-08T00:38:01.395Z,3.218688
2018-09-08T00:38:13.802Z,6.437376
2018-09-08T00:38:26.635Z,9.656064
2018-09-08T00:38:39.905Z,3.218688
2018-09-08T00:38:52.319Z,6.437376
2018-09-08T00:39:04.739Z,6.437376
2018-09-08T00:39:17.139Z,3.218688
2018-09-08T00:39:29.753Z,3.218688
2018-09-08T00:39:42.126Z,8.04672
2018-09-08T00:39:54.708Z,8.04672
2018-09-08T00:40:07.355Z,6.437376
2018-09-08T00:40:19.749Z,8.04672
2018-09-08T00:40:32.150Z,6.437376
2018-09-08T00:40:44.635Z,6.437376
2018-09-08T00:40:57.022Z,8.04672
2018-09-08T00:41:09.424Z,8.04672
2018-09-08T00:41:21.801Z,6.437376
2018-09-08T00:41:34.267Z,6.437376
2018-09-08T00:41:46.818Z,3.218688
2018-09-08T00:41:59.259Z,1.609344
2018-09-08T00:42:11.672Z,6.437376
2018-09-08T00:42:24.052Z,3.218688
2018-09-08T00:42:36.440Z,4.828032
2018-09-08T00:42:48.871Z,4.828032
2018-09-08T00:43:01.266Z,3.218688
2018-09-08T00:43:13.738Z,3.218688
2018-09-08T00:43:26.189Z,3.218688
2018-09-08T00:43:38.609Z,3.218688
2018-09-08T00:43:50.986Z,4.828032
2018-09-08T00:44:03.381Z,3.218688
2018-09-08T00:44:15.781Z,3.218688
2018-09-08T00:44:28.157Z,4.828032
2018-09-08T00:44:40.556Z,8.04672
2018-09-08T00:44:52.972Z,8.04672
2018-09-08T00:45:05.366Z,6.437376
2018-09-08T00:45:17.742Z,1.609344
2018-09-08T00:45:30.131Z,4.828032
2018-09-08T00:45:42.684Z,8.04672
2018-09-08T00:45:55.981Z,9.656064
2018-09-08T00:46:08.760Z,6.437376
2018-09-08T00:46:21.135Z,11.265408
2018-09-08T00:46:33.510Z,9.656064
2018-09-08T00:46:45.882Z,6.437376
2018-09-08T00:46:58.261Z,8.04672
2018-09-08T00:47:10.641Z,6.437376
2018-09-08T00:47:23.046Z,6.437376
2018-09-08T00:47:35.433Z,4.828032
2018-09-08T00:47:47.837Z,3.218688
2018-09-08T00:48:00.239Z,6.437376
2018-09-08T00:48:12.651Z,8.04672
2018-09-08T00:48:25.037Z,6.437376
2018-09-08T00:48:37.429Z,4.828032
2018-09-08T00:48:49.851Z,3.218688
2018-09-08T00:49:02.262Z,3.218688
2018-09-08T00:49:14.791Z,3.218688
2018-09-08T00:49:27.228Z,8.04672
2018-09-08T00:49:39.615Z,8.04672
2018-09-08T00:49:52.015Z,8.04672
2018-09-08T00:50:04.393Z,11.265408
2018-09-08T00:50:16.772Z,8.04672
2018-09-08T00:50:29.180Z,8.04672
2018-09-08T00:50:41.590Z,6.437376
2018-09-08T00:50:53.973Z,6.437376
2018-09-08T00:51:06.371Z,3.218688
2018-09-08T00:51:18.759Z,3.218688
2018-09-08T00:51:31.157Z,1.609344
2018-09-08T00:51:43.624Z,0
2018-09-08T00:51:56.025Z,1.609344
2018-09-08T00:52:08.429Z,1.609344
2018-09-08T00:52:20.811Z,0
2018-09-08T00:52:33.200Z,1.609344
2018-09-08T00:52:45.583Z,3.218688
2018-09-08T00:52:58.339Z,6.437376
2018-09-08T00:53:10.725Z,4.828032
2018-09-08T00:53:23.101Z,8.04672
2018-09-08T00:53:35.502Z,6.437376
2018-09-08T00:53:47.909Z,8.04672
2018-09-08T00:54:00.309Z,6.437376
2018-09-08T00:54:12.691Z,4.828032
2018-09-08T00:54:25.081Z,6.437376
2018-09-08T00:54:37.485Z,6.437376
2018-09-08T00:54:49.887Z,4.828032
2018-09-08T00:55:02.285Z,8.04672
2018-09-08T00:55:14.686Z,3.218688
2018-09-08T00:55:27.064Z,3.218688
2018-09-08T00:55:39.448Z,3.218688
2018-09-08T00:55:51.813Z,3.218688
2018-09-08T00:56:04.200Z,3.218688
2018-09-08T00:56:16.630Z,3.218688
2018-09-08T00:56:29.006Z,1.609344
2018-09-08T00:56:41.380Z,6.437376
2018-09-08T00:56:53.939Z,4.828032
2018-09-08T00:57:06.333Z,4.828032
2018-09-08T00:57:18.725Z,3.218688
2018-09-08T00:57:31.141Z,0
2018-09-08T00:57:43.572Z,3.218688
2018-09-08T00:57:55.981Z,8.04672
2018-09-08T00:58:08.414Z,6.437376
2018-09-08T00:58:20.805Z,1.609344
2018-09-08T00:58:33.194Z,3.218688
2018-09-08T00:58:45.586Z,3.218688
2018-09-08T00:58:58.180Z,1.609344
2018-09-08T00:59:10.584Z,1.609344
2018-09-08T00:59:22.972Z,1.609344
2018-09-08T00:59:35.361Z,3.218688
2018-09-08T00:59:47.847Z,3.218688
2018-09-08T01:00:00.238Z,1.609344
2018-09-08T01:00:12.649Z,3.218688
2018-09-08T01:00:25.049Z,1.609344
2018-09-08T01:00:37.613Z,1.609344
2018-09-08T01:00:50.025Z,3.218688
2018-09-08T01:01:02.459Z,1.609344
2018-09-08T01:01:14.886Z,3.218688
2018-09-08T01:01:27.341Z,1.609344
2018-09-08T01:01:39.760Z,1.609344
2018-09-08T01:01:52.154Z,1.609344
2018-09-08T01:02:04.680Z,1.609344
2018-09-08T01:02:17.080Z,3.218688
2018-09-08T01:02:29.494Z,1.609344
2018-09-08T01:02:41.895Z,3.218688
2018-09-08T01:02:54.296Z,3.218688
2018-09-08T01:03:06.843Z,1.609344
2018-09-08T01:03:19.232Z,3.218688
2018-09-08T01:03:31.648Z,1.609344
2018-09-08T01:03:44.532Z,1.609344
2018-09-08T01:03:58.154Z,3.218688
2018-09-08T01:04:10.538Z,3.218688
2018-09-08T01:04:22.947Z,1.609344
2018-09-08T01:04:35.336Z,1.609344
2018-09-08T01:04:47.737Z,0
2018-09-08T01:05:00.135Z,0
2018-09-08T01:05:12.567Z,0
2018-09-08T01:05:24.947Z,1.609344
2018-09-08T01:05:37.362Z,1.609344
2018-09-08T01:05:49.783Z,1.609344
2018-09-08T01:06:02.185Z,1.609344
2018-09-08T01:06:14.570Z,0
2018-09-08T01:06:26.942Z,0
2018-09-08T01:06:39.497Z,1.609344
2018-09-08T01:06:51.900Z,0
2018-09-08T01:07:04.270Z,0
2018-09-08T01:07:16.752Z,1.609344
2018-09-08T01:07:29.242Z,3.218688
2018-09-08T01:07:41.645Z,1.609344
2018-09-08T01:07:54.052Z,0
2018-09-08T01:08:06.476Z,1.609344
2018-09-08T01:08:19.056Z,1.609344
2018-09-08T01:08:31.462Z,1.609344
2018-09-08T01:08:43.846Z,0
2018-09-08T01:08:56.293Z,1.609344
2018-09-08T01:09:08.695Z,1.609344
2018-09-08T01:09:21.083Z,1.609344
2018-09-08T01:09:33.504Z,1.609344
2018-09-08T01:09:45.888Z,3.218688
2018-09-08T01:09:58.309Z,1.609344
2018-09-08T01:10:10.713Z,0
2018-09-08T01:10:23.155Z,1.609344
2018-09-08T01:10:35.552Z,1.609344
2018-09-08T01:10:47.958Z,1.609344
2018-09-08T01:11:00.347Z,3.218688
2018-09-08T01:11:12.756Z,1.609344
2018-09-08T01:11:25.154Z,1.609344
2018-09-08T01:11:37.557Z,1.609344
2018-09-08T01:11:50.398Z,1.609344
2018-09-08T01:12:02.788Z,1.609344
2018-09-08T01:12:15.168Z,1.609344
2018-09-08T01:12:27.565Z,1.609344
2018-09-08T01:12:40.089Z,3.218688
2018-09-08T01:12:52.491Z,0
2018-09-08T01:13:04.872Z,0
2018-09-08T01:13:17.632Z,0
2018-09-08T01:13:30.052Z,0
2018-09-08T01:13:42.447Z,0
2018-09-08T01:13:54.838Z,0
2018-09-08T01:14:07.244Z,0
2018-09-08T01:14:19.634Z,0
2018-09-08T01:14:32.035Z,1.609344
2018-09-08T01:14:44.421Z,1.609344
2018-09-08T01:14:56.845Z,4.828032
2018-09-08T01:15:09.233Z,3.218688
2018-09-08T01:15:21.621Z,1.609344
2018-09-08T01:15:34.015Z,1.609344
2018-09-08T01:15:46.462Z,6.437376
2018-09-08T01:15:58.867Z,1.609344
2018-09-08T01:16:11.567Z,1.609344
2018-09-08T01:16:24.004Z,1.609344
2018-09-08T01:16:36.368Z,1.609344
2018-09-08T01:16:48.747Z,3.218688
2018-09-08T01:17:01.142Z,0
2018-09-08T01:17:13.545Z,1.609344
2018-09-08T01:17:25.942Z,1.609344
2018-09-08T01:17:38.455Z,3.218688
2018-09-08T01:17:50.830Z,3.218688
2018-09-08T01:18:03.207Z,1.609344
2018-09-08T01:18:15.583Z,1.609344
2018-09-08T01:18:27.974Z,1.609344
2018-09-08T01:18:40.342Z,0
2018-09-08T01:18:52.720Z,1.609344
2018-09-08T01:19:05.160Z,1.609344
2018-09-08T01:19:17.547Z,1.609344
2018-09-08T01:19:29.953Z,1.609344
2018-09-08T01:19:42.326Z,1.609344
2018-09-08T01:19:54.747Z,0
2018-09-08T01:20:07.152Z,0
2018-09-08T01:20:19.543Z,1.609344
2018-09-08T01:20:32.039Z,1.609344
2018-09-08T01:20:44.687Z,0
2018-09-08T01:20:57.080Z,1.609344
2018-09-08T01:21:09.471Z,1.609344
2018-09-08T01:21:21.859Z,3.218688
2018-09-08T01:21:34.260Z,1.609344
2018-09-08T01:21:46.635Z,1.609344
2018-09-08T01:21:59.032Z,1.609344
2018-09-08T01:22:11.433Z,0
2018-09-08T01:22:23.837Z,0
2018-09-08T01:22:36.255Z,0
2018-09-08T01:22:48.625Z,3.218688
2018-09-08T01:23:01.108Z,3.218688
2018-09-08T01:23:13.493Z,1.609344
2018-09-08T01:23:25.879Z,1.609344
2018-09-08T01:23:38.372Z,1.609344
2018-09-08T01:23:50.844Z,3.218688
2018-09-08T01:24:03.236Z,1.609344
2018-09-08T01:24:15.609Z,1.609344
2018-09-08T01:24:28.005Z,1.609344
2018-09-08T01:24:40.401Z,1.609344
2018-09-08T01:24:52.885Z,1.609344
2018-09-08T01:25:05.324Z,1.609344
2018-09-08T01:25:17.810Z,1.609344
2018-09-08T01:25:30.196Z,0
2018-09-08T01:25:42.600Z,0
2018-09-08T01:25:54.993Z,1.609344
2018-09-08T01:26:07.442Z,0
2018-09-08T01:26:19.831Z,0
2018-09-08T01:26:32.286Z,1.609344
2018-09-08T01:26:44.773Z,0
2018-09-08T01:26:57.177Z,0
2018-09-08T01:27:09.583Z,0
2018-09-08T01:27:21.974Z,0
2018-09-08T01:27:34.370Z,0
2018-09-08T01:27:46.739Z,0
2018-09-08T01:27:59.115Z,1.609344
2018-09-08T01:28:11.493Z,0
2018-09-08T01:28:23.864Z,0
2018-09-08T01:28:36.235Z,0
2018-09-08T01:28:48.618Z,0
2018-09-08T01:29:01.002Z,0
2018-09-08T01:29:13.413Z,0
2018-09-08T01:29:25.779Z,0
2018-09-08T01:29:38.141Z,0
2018-09-08T01:29:50.509Z,1.609344
2018-09-08T01:30:02.910Z,1.609344
2018-09-08T01:30:15.336Z,1.609344
2018-09-08T01:30:27.835Z,0
2018-09-08T01:30:40.215Z,0
2018-09-08T01:30:52.597Z,0
2018-09-08T01:31:04.972Z,1.609344
2018-09-08T01:31:17.357Z,1.609344
2018-09-08T01:31:29.740Z,0
2018-09-08T01:31:42.129Z,1.609344
2018-09-08T01:31:54.515Z,0
2018-09-08T01:32:06.914Z,0
2018-09-08T01:32:19.295Z,0
2018-09-08T01:32:31.688Z,0
2018-09-08T01:32:44.068Z,0
2018-09-08T01:32:56.466Z,1.609344
2018-09-08T01:33:08.895Z,0
2018-09-08T01:33:21.291Z,0
2018-09-08T01:33:33.710Z,1.609344
2018-09-08T01:33:46.103Z,3.218688
2018-09-08T01:33:58.540Z,0
2018-09-08T01:34:10.923Z,0
2018-09-08T01:34:23.290Z,1.609344
2018-09-08T01:34:35.686Z,1.609344
2018-09-08T01:34:48.077Z,0
2018-09-08T01:35:00.463Z,0
2018-09-08T01:35:12.852Z,0
2018-09-08T01:35:25.281Z,1.609344
2018-09-08T01:35:37.664Z,0
2018-09-08T01:35:50.041Z,0
2018-09-08T01:36:02.419Z,0
2018-09-08T01:36:15.843Z,0
2018-09-08T01:36:28.210Z,0
2018-09-08T01:36:40.614Z,1.609344
2018-09-08T01:36:53.036Z,0
2018-09-08T01:37:05.469Z,1.609344
2018-09-08T01:37:17.842Z,0
2018-09-08T01:37:30.393Z,0
2018-09-08T01:37:42.794Z,0
2018-09-08T01:37:55.186Z,0
2018-09-08T01:38:07.554Z,0
2018-09-08T01:38:19.921Z,0
2018-09-08T01:38:32.297Z,1.609344
2018-09-08T01:38:44.688Z,0
2018-09-08T01:38:57.077Z,0
2018-09-08T01:39:09.462Z,0
2018-09-08T01:39:21.847Z,0
2018-09-08T01:39:34.235Z,0
2018-09-08T01:39:46.612Z,0
2018-09-08T01:39:59.008Z,0
2018-09-08T01:40:11.391Z,0
2018-09-08T01:40:23.805Z,0
2018-09-08T01:40:36.197Z,0
2018-09-08T01:40:48.578Z,0
2018-09-08T01:41:00.994Z,0
2018-09-08T01:41:13.370Z,0
2018-09-08T01:41:25.769Z,0
2018-09-08T01:41:38.150Z,0
2018-09-08T01:41:50.524Z,0
2018-09-08T01:42:02.906Z,0
2018-09-08T01:42:15.359Z,0
2018-09-08T01:42:27.851Z,0
2018-09-08T01:42:40.222Z,0
2018-09-08T01:42:52.598Z,0
2018-09-08T01:43:05.014Z,0
2018-09-08T01:43:17.423Z,0
2018-09-08T01:43:29.793Z,0
2018-09-08T01:43:42.165Z,0
2018-09-08T01:43:54.544Z,0
2018-09-08T01:44:06.920Z,0
2018-09-08T01:44:19.304Z,0
2018-09-08T01:44:31.695Z,0
2018-09-08T01:44:44.101Z,0
2018-09-08T01:44:56.469Z,0
2018-09-08T01:45:08.851Z,0
2018-09-08T01:45:21.251Z,0
2018-09-08T01:45:33.617Z,0
2018-09-08T01:45:45.989Z,0
2018-09-08T01:45:58.414Z,0
2018-09-08T01:46:10.815Z,0
2018-09-08T01:46:23.217Z,0
2018-09-08T01:46:35.609Z,0
2018-09-08T01:46:47.990Z,0
2018-09-08T01:47:00.367Z,0
2018-09-08T01:47:12.751Z,0
2018-09-08T01:47:25.149Z,0
2018-09-08T01:47:37.524Z,0
2018-09-08T01:47:49.921Z,0
2018-09-08T01:48:02.312Z,0
2018-09-08T01:48:14.688Z,0
2018-09-08T01:48:27.076Z,0
2018-09-08T01:48:39.465Z,0
2018-09-08T01:48:51.844Z,0
2018-09-08T01:49:04.240Z,0
2018-09-08T01:49:16.734Z,0
2018-09-08T01:49:29.139Z,0
2018-09-08T01:49:41.525Z,0
2018-09-08T01:49:53.928Z,0
2018-09-08T01:50:06.305Z,0
2018-09-08T01:50:18.688Z,0
2018-09-08T01:50:31.056Z,0
2018-09-08T01:50:43.438Z,0
2018-09-08T01:50:55.824Z,0
2018-09-08T01:51:08.205Z,0
2018-09-08T01:51:20.577Z,0
2018-09-08T01:51:32.964Z,0
2018-09-08T01:51:45.334Z,0
2018-09-08T01:51:57.709Z,0
2018-09-08T01:52:10.103Z,0
2018-09-08T01:52:22.482Z,0
2018-09-08T01:52:34.881Z,0
2018-09-08T01:52:47.259Z,0
2018-09-08T01:52:59.718Z,0
2018-09-08T01:53:12.121Z,0
2018-09-08T01:53:24.514Z,0
2018-09-08T01:53:36.918Z,0
2018-09-08T01:53:49.284Z,0
2018-09-08T01:54:01.677Z,0
2018-09-08T01:54:14.073Z,0
2018-09-08T01:54:26.443Z,0
2018-09-08T01:54:38.814Z,0
2018-09-08T01:54:51.210Z,0
2018-09-08T01:55:03.574Z,1.609344
2018-09-08T01:55:15.975Z,0
2018-09-08T01:55:28.365Z,1.609344
2018-09-08T01:55:40.743Z,0
2018-09-08T01:55:53.113Z,0
2018-09-08T01:56:05.514Z,0
2018-09-08T01:56:17.886Z,0
2018-09-08T01:56:30.256Z,0
2018-09-08T01:56:42.628Z,0
2018-09-08T01:56:55.023Z,0
2018-09-08T01:57:07.454Z,0
2018-09-08T01:57:19.835Z,0
2018-09-08T01:57:32.224Z,1.609344
2018-09-08T01:57:44.657Z,1.609344
2018-09-08T01:57:57.097Z,0
2018-09-08T01:58:09.480Z,0
2018-09-08T01:58:21.871Z,0
2018-09-08T01:58:34.264Z,0
2018-09-08T01:58:46.631Z,0
2018-09-08T01:58:59.015Z,0
2018-09-08T01:59:11.402Z,1.609344
2018-09-08T01:59:23.800Z,0
2018-09-08T01:59:36.180Z,0
2018-09-08T01:59:49.363Z,0
2018-09-08T02:00:01.745Z,0
2018-09-08T02:00:14.222Z,0
2018-09-08T02:00:26.619Z,0
2018-09-08T02:00:39.049Z,0
2018-09-08T02:00:51.439Z,0
2018-09-08T02:01:03.840Z,0
2018-09-08T02:01:17.014Z,0
2018-09-08T02:01:29.439Z,0
2018-09-08T02:01:41.860Z,1.609344
2018-09-08T02:01:54.326Z,1.609344
2018-09-08T02:02:06.770Z,0
2018-09-08T02:02:19.181Z,0
2018-09-08T02:02:31.564Z,0
2018-09-08T02:02:43.946Z,0
2018-09-08T02:02:56.335Z,0
2018-09-08T02:03:08.888Z,0
2018-09-08T02:03:21.292Z,0
2018-09-08T02:03:33.670Z,0
2018-09-08T02:03:46.067Z,0
2018-09-08T02:03:58.470Z,0
2018-09-08T02:04:10.868Z,0
2018-09-08T02:04:23.261Z,0
2018-09-08T02:04:35.656Z,1.609344
2018-09-08T02:04:48.107Z,1.609344
2018-09-08T02:05:00.513Z,0
2018-09-08T02:05:12.922Z,1.609344
2018-09-08T02:05:25.316Z,0
2018-09-08T02:05:37.695Z,0
2018-09-08T02:05:50.101Z,0
2018-09-08T02:06:02.491Z,0
2018-09-08T02:06:14.893Z,0
2018-09-08T02:06:27.262Z,0
2018-09-08T02:06:39.650Z,0
2018-09-08T02:06:52.433Z,0
2018-09-08T02:07:04.820Z,1.609344
2018-09-08T02:07:17.199Z,0
2018-09-08T02:07:29.652Z,0
2018-09-08T02:07:42.214Z,0
2018-09-08T02:07:54.609Z,0
2018-09-08T02:08:07.005Z,0
2018-09-08T02:08:19.463Z,0
2018-09-08T02:08:31.851Z,0
2018-09-08T02:08:44.248Z,0
2018-09-08T02:08:56.685Z,1.609344
2018-09-08T02:09:09.104Z,1.609344
2018-09-08T02:09:21.635Z,0
2018-09-08T02:09:34.029Z,0
2018-09-08T02:09:46.403Z,0
2018-09-08T02:09:58.815Z,0
2018-09-08T02:10:11.197Z,1.609344
2018-09-08T02:10:23.606Z,0
2018-09-08T02:10:36.011Z,0
2018-09-08T02:10:48.407Z,0
2018-09-08T02:11:00.817Z,0
2018-09-08T02:11:13.212Z,0
2018-09-08T02:11:25.611Z,1.609344
2018-09-08T02:11:37.997Z,1.609344
2018-09-08T02:11:50.543Z,0
2018-09-08T02:12:02.989Z,0
2018-09-08T02:12:15.381Z,1.609344
2018-09-08T02:12:27.829Z,3.218688
2018-09-08T02:12:40.367Z,1.609344
2018-09-08T02:12:52.766Z,4.828032
2018-09-08T02:13:05.177Z,1.609344
2018-09-08T02:13:17.582Z,3.218688
2018-09-08T02:13:30.146Z,1.609344
2018-09-08T02:13:42.536Z,1.609344
2018-09-08T02:13:54.928Z,3.218688
2018-09-08T02:14:07.350Z,0
2018-09-08T02:14:19.736Z,1.609344
2018-09-08T02:14:32.147Z,1.609344
2018-09-08T02:14:44.548Z,0
2018-09-08T02:14:56.955Z,0
2018-09-08T02:15:09.409Z,0
2018-09-08T02:15:21.805Z,0
2018-09-08T02:15:34.171Z,0
2018-09-08T02:15:46.550Z,0
2018-09-08T02:15:58.917Z,0
2018-09-08T02:16:11.699Z,0
2018-09-08T02:16:24.063Z,0
2018-09-08T02:16:36.429Z,0
2018-09-08T02:16:48.811Z,0
2018-09-08T02:17:01.190Z,0
2018-09-08T02:17:13.586Z,0
2018-09-08T02:17:25.956Z,0
2018-09-08T02:17:38.483Z,0
2018-09-08T02:17:50.856Z,0
2018-09-08T02:18:03.239Z,0
2018-09-08T02:18:15.741Z,0
2018-09-08T02:18:28.148Z,0
2018-09-08T02:18:40.535Z,1.609344
2018-09-08T02:18:52.931Z,0
2018-09-08T02:19:05.315Z,0
2018-09-08T02:19:17.715Z,1.609344
2018-09-08T02:19:30.104Z,1.609344
2018-09-08T02:19:42.488Z,1.609344
2018-09-08T02:19:54.847Z,0
2018-09-08T02:20:07.233Z,1.609344
2018-09-08T02:20:19.614Z,1.609344
2018-09-08T02:20:32.583Z,1.609344
2018-09-08T02:20:45.040Z,0
2018-09-08T02:20:57.439Z,0
2018-09-08T02:21:09.811Z,0
2018-09-08T02:21:22.180Z,1.609344
2018-09-08T02:21:34.575Z,0
2018-09-08T02:21:46.963Z,0
2018-09-08T02:21:59.344Z,0
2018-09-08T02:22:11.729Z,0
2018-09-08T02:22:24.271Z,0
2018-09-08T02:22:36.671Z,0
2018-09-08T02:22:49.058Z,1.609344
2018-09-08T02:23:01.916Z,0
2018-09-08T02:23:14.310Z,0
2018-09-08T02:23:26.700Z,0
2018-09-08T02:23:39.081Z,0
2018-09-08T02:23:51.562Z,0
2018-09-08T02:24:03.954Z,0
2018-09-08T02:24:16.350Z,1.609344
2018-09-08T02:24:28.752Z,1.609344
2018-09-08T02:24:41.152Z,1.609344
2018-09-08T02:24:53.747Z,1.609344
2018-09-08T02:25:06.152Z,1.609344
2018-09-08T02:25:18.933Z,0
2018-09-08T02:25:32.282Z,0
2018-09-08T02:25:44.877Z,0
2018-09-08T02:25:57.247Z,0
2018-09-08T02:26:09.675Z,0
2018-09-08T02:26:22.101Z,0
2018-09-08T02:26:34.501Z,0
2018-09-08T02:26:46.963Z,0
2018-09-08T02:26:59.355Z,0
2018-09-08T02:27:11.737Z,0
2018-09-08T02:27:24.243Z,1.609344
2018-09-08T02:27:36.625Z,0
2018-09-08T02:27:49.018Z,0
2018-09-08T02:28:01.461Z,0
2018-09-08T02:28:13.839Z,0
2018-09-08T02:28:26.260Z,0
2018-09-08T02:28:38.649Z,0
2018-09-08T02:28:51.067Z,1.609344
2018-09-08T02:29:03.535Z,1.609344
2018-09-08T02:29:15.937Z,1.609344
2018-09-08T02:29:28.323Z,1.609344
2018-09-08T02:29:40.699Z,3.218688
2018-09-08T02:29:53.113Z,3.218688
2018-09-08T02:30:05.548Z,3.218688
2018-09-08T02:30:17.959Z,1.609344
2018-09-08T02:30:30.366Z,1.609344
2018-09-08T02:30:42.756Z,1.609344
2018-09-08T02:30:55.223Z,0
2018-09-08T02:31:07.645Z,0
2018-09-08T02:31:20.069Z,0
2018-09-08T02:31:32.460Z,0
2018-09-08T02:31:44.871Z,0
2018-09-08T02:31:57.255Z,0
2018-09-08T02:32:09.658Z,0
2018-09-08T02:32:22.092Z,1.609344
2018-09-08T02:32:34.497Z,0
2018-09-08T02:32:46.897Z,1.609344
2018-09-08T02:32:59.278Z,0
2018-09-08T02:33:11.675Z,0
2018-09-08T02:33:24.057Z,0
2018-09-08T02:33:36.460Z,0
2018-09-08T02:33:48.851Z,1.609344
2018-09-08T02:34:01.235Z,1.609344
2018-09-08T02:34:13.625Z,3.218688
2018-09-08T02:34:26.059Z,3.218688
2018-09-08T02:34:38.474Z,0
2018-09-08T02:34:50.894Z,0
2018-09-08T02:35:03.452Z,1.609344
2018-09-08T02:35:15.860Z,0
2018-09-08T02:35:28.297Z,0
2018-09-08T02:35:40.736Z,0
2018-09-08T02:35:53.179Z,0
2018-09-08T02:36:05.590Z,0
2018-09-08T02:36:17.991Z,0
2018-09-08T02:36:30.372Z,0
2018-09-08T02:36:42.781Z,0
2018-09-08T02:36:55.172Z,0
2018-09-08T02:37:07.580Z,1.609344
2018-09-08T02:37:19.974Z,0
2018-09-08T02:37:32.381Z,1.609344
2018-09-08T02:37:44.762Z,0
2018-09-08T02:37:57.148Z,1.609344
2018-09-08T02:38:09.538Z,1.609344
2018-09-08T02:38:21.936Z,0
2018-09-08T02:38:34.344Z,1.609344
2018-09-08T02:38:46.748Z,0
2018-09-08T02:38:59.149Z,0
2018-09-08T02:39:11.574Z,0